createdAt,value
2018-09-06T00:01:34.000Z,10.87
2018-09-06T00:04:37.264Z,10.83
2018-09-06T00:07:41.407Z,10.73
2018-09-06T00:10:44.656Z,11.70
2018-09-06T00:13:47.872Z,10.73
2018-09-06T00:16:52.229Z,11.70
2018-09-06T00:19:55.474Z,11.23
2018-09-06T00:22:58.689Z,12.07
2018-09-06T00:26:02.014Z,11.37
2018-09-06T00:29:05.292Z,11.93
2018-09-06T00:32:08.668Z,11.20
2018-09-06T00:35:13.312Z,12.10
2018-09-06T00:38:16.682Z,12.17
2018-09-06T00:41:20.949Z,12.07
2018-09-06T00:44:24.260Z,12.30
2018-09-06T00:47:27.549Z,13.57
2018-09-06T00:50:36.250Z,13.00
2018-09-06T00:53:39.565Z,13.77
2018-09-06T00:56:42.966Z,13.00
2018-09-06T00:59:46.256Z,13.00
2018-09-06T01:02:49.522Z,13.60
2018-09-06T01:05:52.743Z,14.03
2018-09-06T01:08:56.020Z,13.30
2018-09-06T01:12:01.355Z,13.23
2018-09-06T01:15:04.607Z,14.00
2018-09-06T01:18:07.878Z,14.30
2018-09-06T01:21:11.201Z,14.70
2018-09-06T01:24:14.460Z,14.20
2018-09-06T01:27:17.757Z,13.93
2018-09-06T01:30:21.058Z,14.27
2018-09-06T01:33:24.377Z,14.63
2018-09-06T01:36:33.109Z,13.40
2018-09-06T01:39:37.177Z,14.57
2018-09-06T01:42:41.853Z,14.30
2018-09-06T01:45:45.135Z,14.43
2018-09-06T01:48:49.343Z,15.57
2018-09-06T01:51:52.648Z,15.63
2018-09-06T01:54:56.851Z,15.93
2018-09-06T01:58:00.171Z,15.23
2018-09-06T02:01:03.463Z,16.07
2018-09-06T02:04:06.775Z,16.17
2018-09-06T02:07:10.078Z,15.17
2018-09-06T02:10:14.240Z,15.63
2018-09-06T02:13:17.471Z,16.07
2018-09-06T02:16:20.789Z,16.70
2018-09-06T02:19:24.085Z,16.30
2018-09-06T02:22:27.367Z,15.50
2018-09-06T02:25:30.686Z,15.97
2018-09-06T02:28:33.977Z,16.83
2018-09-06T02:31:37.888Z,16.13
2018-09-06T02:34:41.327Z,16.90
2018-09-06T02:37:44.688Z,16.97
2018-09-06T02:40:47.953Z,16.57
2018-09-06T02:43:52.292Z,17.13
2018-09-06T02:46:55.564Z,16.00
2018-09-06T02:50:04.330Z,16.90
2018-09-06T02:53:07.667Z,16.87
2018-09-06T02:56:12.155Z,16.80
2018-09-06T02:59:15.411Z,17.00
2018-09-06T03:02:18.585Z,16.37
2018-09-06T03:05:21.825Z,16.23
2018-09-06T03:08:25.130Z,16.17
2018-09-06T03:12:01.831Z,16.53
2018-09-06T03:15:05.200Z,17.13
2018-09-06T03:18:08.500Z,16.93
2018-09-06T03:21:12.289Z,16.97
2018-09-06T03:24:15.832Z,17.07
2018-09-06T03:27:19.118Z,17.37
2018-09-06T03:30:22.685Z,17.80
2018-09-06T03:33:26.033Z,18.50
2018-09-06T03:36:29.296Z,17.50
2018-09-06T03:39:32.528Z,17.40
2018-09-06T03:42:35.783Z,16.43
2018-09-06T03:45:39.139Z,17.20
2018-09-06T03:48:42.368Z,16.60
2018-09-06T03:51:45.507Z,16.80
2018-09-06T03:54:48.839Z,15.87
2018-09-06T03:57:52.211Z,16.73
2018-09-06T04:00:55.498Z,17.40
2018-09-06T04:03:58.773Z,16.73
2018-09-06T04:07:02.090Z,17.33
2018-09-06T04:10:05.571Z,16.93
2018-09-06T04:13:08.865Z,15.90
2018-09-06T04:16:12.192Z,16.20
2018-09-06T04:19:15.350Z,17.17
2018-09-06T04:22:18.580Z,16.93
2018-09-06T04:25:21.887Z,16.70
2018-09-06T04:28:25.155Z,15.80
2018-09-06T04:31:28.448Z,18.17
2018-09-06T04:34:31.772Z,16.77
2018-09-06T04:37:35.129Z,17.87
2018-09-06T04:40:38.335Z,16.97
2018-09-06T04:43:41.720Z,16.70
2018-09-06T04:46:48.760Z,18.13
2018-09-06T04:49:52.008Z,16.97
2018-09-06T04:52:55.555Z,18.40
2018-09-06T04:55:58.827Z,17.47
2018-09-06T04:59:02.104Z,16.97
2018-09-06T05:02:05.274Z,19.40
2018-09-06T05:05:08.619Z,18.47
2018-09-06T05:08:14.055Z,18.77
2018-09-06T05:11:17.272Z,17.30
2018-09-06T05:14:20.557Z,19.17
2018-09-06T05:17:23.832Z,20.70
2018-09-06T05:20:27.152Z,19.43
2018-09-06T05:23:30.452Z,18.80
2018-09-06T05:26:33.749Z,19.07
2018-09-06T05:29:36.932Z,19.63
2018-09-06T05:32:40.265Z,18.27
2018-09-06T05:35:44.983Z,19.00
2018-09-06T05:38:48.315Z,18.93
2018-09-06T05:41:51.634Z,18.87
2018-09-06T05:44:54.864Z,18.70
2018-09-06T05:47:58.986Z,18.57
2018-09-06T05:51:02.308Z,19.13
2018-09-06T05:54:05.497Z,20.87
2018-09-06T05:57:08.766Z,18.33
2018-09-06T06:00:17.487Z,20.80
2018-09-06T06:03:20.758Z,20.03
2018-09-06T06:06:23.950Z,20.73
2018-09-06T06:09:27.328Z,19.57
2018-09-06T06:12:30.576Z,19.50
2018-09-06T06:15:33.861Z,19.67
2018-09-06T06:18:37.299Z,20.70
2018-09-06T06:21:41.277Z,19.23
2018-09-06T06:24:44.484Z,20.17
2018-09-06T06:27:47.772Z,21.03
2018-09-06T06:30:51.094Z,20.47
2018-09-06T06:33:54.419Z,20.60
2018-09-06T06:36:57.672Z,20.37
2018-09-06T06:40:00.975Z,21.47
2018-09-06T06:43:04.264Z,21.60
2018-09-06T06:46:07.567Z,19.93
2018-09-06T06:49:10.947Z,20.53
2018-09-06T06:52:14.278Z,22.00
2018-09-06T06:55:17.572Z,20.73
2018-09-06T06:58:20.779Z,21.17
2018-09-06T07:01:24.108Z,21.97
2018-09-06T07:04:27.538Z,22.10
2018-09-06T07:07:30.954Z,21.73
2018-09-06T07:10:34.257Z,22.23
2018-09-06T07:13:37.545Z,21.63
2018-09-06T07:16:41.740Z,22.23
2018-09-06T07:19:45.082Z,22.60
2018-09-06T07:22:48.270Z,21.60
2018-09-06T07:25:51.452Z,22.47
2018-09-06T07:28:55.787Z,20.47
2018-09-06T07:31:59.079Z,20.00
2018-09-06T07:35:02.381Z,22.23
2018-09-06T07:38:05.684Z,21.07
2018-09-06T07:41:09.608Z,20.30
2018-09-06T07:44:12.871Z,20.70
2018-09-06T07:47:16.180Z,21.50
2018-09-06T07:50:19.462Z,20.37
2018-09-06T07:53:22.799Z,20.07
2018-09-06T07:56:26.086Z,22.03
2018-09-06T07:59:29.365Z,21.10
2018-09-06T08:02:32.688Z,20.97
2018-09-06T08:05:35.967Z,20.03
2018-09-06T08:08:40.151Z,18.90
2018-09-06T08:11:43.487Z,19.63
2018-09-06T08:14:46.675Z,18.37
2018-09-06T08:17:49.967Z,18.77
2018-09-06T08:20:53.350Z,18.40
2018-09-06T08:23:56.700Z,19.73
2018-09-06T08:26:59.936Z,19.70
2018-09-06T08:30:03.183Z,18.37
2018-09-06T08:33:06.620Z,18.33
2018-09-06T08:36:11.012Z,20.00
2018-09-06T08:39:14.293Z,18.57
2018-09-06T08:42:17.628Z,17.00
2018-09-06T08:45:20.976Z,17.23
2018-09-06T08:48:24.176Z,19.37
2018-09-06T08:51:27.488Z,18.13
2018-09-06T08:54:30.748Z,20.03
2018-09-06T08:57:34.079Z,19.07
2018-09-06T09:00:40.483Z,19.17
2018-09-06T09:03:43.710Z,18.33
2018-09-06T09:06:46.876Z,17.57
2018-09-06T09:09:51.173Z,16.60
2018-09-06T09:12:54.671Z,15.97
2018-09-06T09:15:57.927Z,15.00
2018-09-06T09:19:01.237Z,14.93
2018-09-06T09:22:04.736Z,14.70
2018-09-06T09:25:07.943Z,13.97
2018-09-06T09:28:12.191Z,13.87
2018-09-06T09:31:15.435Z,15.30
2018-09-06T09:34:19.660Z,14.47
2018-09-06T09:37:22.984Z,13.80
2018-09-06T09:40:26.343Z,12.30
2018-09-06T09:43:29.564Z,12.50
2018-09-06T09:49:35.502Z,12.93
2018-09-06T09:52:39.385Z,12.20
2018-09-06T09:55:42.677Z,11.77
2018-09-06T09:58:45.936Z,12.07
2018-09-06T10:01:54.622Z,12.13
2018-09-06T10:05:03.234Z,11.83
2018-09-06T10:08:11.683Z,12.10
2018-09-06T10:11:15.312Z,11.93
2018-09-06T10:14:18.502Z,12.23
2018-09-06T10:17:21.784Z,12.03
2018-09-06T10:20:24.972Z,11.03
2018-09-06T10:23:28.322Z,11.77
2018-09-06T10:26:31.527Z,11.13
2018-09-06T10:29:34.837Z,11.17
2018-09-06T10:32:39.865Z,12.17
2018-09-06T10:35:43.132Z,11.87
2018-09-06T10:38:46.511Z,10.80
2018-09-06T10:41:49.715Z,11.40
2018-09-06T10:44:53.020Z,11.53
2018-09-06T10:47:56.383Z,11.37
2018-09-06T10:50:59.541Z,11.17
2018-09-06T10:54:02.850Z,10.20
2018-09-06T10:57:06.122Z,9.30
2018-09-06T11:00:09.856Z,9.63
2018-09-06T11:03:13.131Z,9.47
2018-09-06T11:06:16.482Z,10.27
2018-09-06T11:09:19.702Z,10.17
2018-09-06T11:12:23.016Z,9.63
2018-09-06T11:15:26.301Z,9.73
2018-09-06T11:18:29.719Z,9.47
2018-09-06T11:21:33.077Z,9.63
2018-09-06T11:24:36.303Z,10.00
2018-09-06T11:27:39.657Z,9.83
2018-09-06T11:30:42.787Z,9.67
2018-09-06T11:33:46.075Z,9.33
2018-09-06T11:36:49.275Z,9.43
2018-09-06T11:39:52.499Z,10.40
2018-09-06T11:42:55.814Z,10.53
2018-09-06T11:45:59.011Z,10.27
2018-09-06T11:49:02.369Z,10.53
2018-09-06T11:52:07.028Z,10.77
2018-09-06T11:55:11.013Z,10.10
2018-09-06T11:58:14.363Z,10.03
2018-09-06T12:01:17.615Z,10.00
2018-09-06T12:04:20.934Z,9.73
2018-09-06T12:07:24.090Z,9.67
2018-09-06T12:10:27.414Z,10.93
2018-09-06T12:13:30.691Z,9.60
2018-09-06T12:16:33.886Z,9.80
2018-09-06T12:19:38.295Z,9.50
2018-09-06T12:22:42.598Z,9.87
2018-09-06T12:25:45.864Z,9.93
2018-09-06T12:28:49.165Z,10.10
2018-09-06T12:31:52.338Z,9.07
2018-09-06T12:34:55.659Z,9.73
2018-09-06T12:37:58.960Z,9.87
2018-09-06T12:41:02.337Z,9.97
2018-09-06T12:44:05.643Z,10.27
2018-09-06T12:47:09.177Z,10.43
2018-09-06T12:50:13.680Z,9.93
2018-09-06T12:53:16.975Z,10.43
2018-09-06T12:56:20.506Z,10.13
2018-09-06T12:59:23.980Z,10.53
2018-09-06T13:02:26.326Z,10.60
2018-09-06T13:05:29.650Z,10.90
2018-09-06T13:08:32.983Z,10.27
2018-09-06T13:11:36.556Z,9.43
2018-09-06T13:14:39.937Z,9.63
2018-09-06T13:17:43.560Z,10.27
2018-09-06T13:20:46.785Z,9.60
2018-09-06T13:23:49.947Z,9.70
2018-09-06T13:26:53.195Z,7.70
2018-09-06T13:29:56.419Z,9.90
2018-09-06T13:32:59.684Z,12.90
2018-09-06T13:36:03.033Z,12.47
2018-09-06T13:39:08.283Z,12.30
2018-09-06T13:42:13.606Z,11.30
2018-09-06T13:45:16.776Z,10.87
2018-09-06T13:48:20.091Z,10.83
2018-09-06T13:51:23.415Z,10.10
2018-09-06T13:54:26.609Z,8.90
2018-09-06T13:57:29.911Z,8.80
2018-09-06T14:00:33.159Z,7.73
2018-09-06T14:03:36.488Z,8.40
2018-09-06T14:06:39.707Z,9.20
2018-09-06T14:09:44.005Z,9.27
2018-09-06T14:12:47.325Z,10.27
2018-09-06T14:15:50.518Z,9.90
2018-09-06T14:18:53.770Z,9.70
2018-09-06T14:21:57.024Z,9.13
2018-09-06T14:25:00.296Z,9.10
2018-09-06T14:28:03.551Z,9.03
2018-09-06T14:31:07.928Z,9.60
2018-09-06T14:34:12.428Z,9.20
2018-09-06T14:37:15.745Z,8.30
2018-09-06T14:40:19.103Z,7.13
2018-09-06T14:43:22.411Z,6.33
2018-09-06T14:46:25.842Z,7.47
2018-09-06T14:49:29.156Z,8.50
2018-09-06T14:52:32.410Z,8.20
2018-09-06T14:55:35.680Z,8.10
2018-09-06T14:58:39.344Z,8.60
2018-09-06T15:01:45.936Z,8.90
2018-09-06T15:04:49.216Z,9.13
2018-09-06T15:07:52.450Z,10.30
2018-09-06T15:10:55.844Z,9.67
2018-09-06T15:14:00.251Z,9.40
2018-09-06T15:17:03.611Z,9.77
2018-09-06T15:20:07.087Z,9.70
2018-09-06T15:23:10.383Z,9.90
2018-09-06T15:26:14.551Z,10.37
2018-09-06T15:29:18.063Z,10.13
2018-09-06T15:32:21.454Z,10.07
2018-09-06T15:35:24.791Z,10.30
2018-09-06T15:38:28.220Z,10.53
2018-09-06T15:41:31.519Z,10.03
2018-09-06T15:44:35.338Z,9.67
2018-09-06T15:47:38.522Z,9.27
2018-09-06T15:50:42.524Z,10.37
2018-09-06T15:53:45.965Z,9.70
2018-09-06T15:56:49.218Z,9.77
2018-09-06T15:59:52.611Z,9.70
2018-09-06T16:02:55.905Z,9.53
2018-09-06T16:05:59.146Z,9.83
2018-09-06T16:09:03.099Z,9.10
2018-09-06T16:12:06.383Z,9.83
2018-09-06T16:15:09.681Z,9.60
2018-09-06T16:18:14.007Z,9.40
2018-09-06T16:21:17.246Z,9.43
2018-09-06T16:24:20.588Z,9.40
2018-09-06T16:27:24.897Z,9.40
2018-09-06T16:30:28.328Z,9.13
2018-09-06T16:33:31.587Z,9.73
2018-09-06T16:36:34.845Z,9.70
2018-09-06T16:39:38.079Z,9.60
2018-09-06T16:42:42.258Z,9.77
2018-09-06T16:45:45.352Z,10.03
2018-09-06T16:48:48.577Z,10.93
2018-09-06T16:51:51.889Z,10.43
2018-09-06T16:54:55.273Z,11.40
2018-09-06T16:57:58.605Z,10.70
2018-09-06T17:01:01.891Z,10.57
2018-09-06T17:04:05.188Z,9.97
2018-09-06T17:07:08.311Z,10.10
2018-09-06T17:10:12.186Z,10.30
2018-09-06T17:13:15.593Z,10.30
2018-09-06T17:16:18.854Z,9.87
2018-09-06T17:19:22.176Z,9.37
2018-09-06T17:22:25.508Z,10.07
2018-09-06T17:25:28.747Z,9.20
2018-09-06T17:28:32.034Z,9.70
2018-09-06T17:31:35.365Z,9.67
2018-09-06T17:34:38.656Z,10.40
2018-09-06T17:37:42.075Z,10.70
2018-09-06T17:40:45.468Z,10.83
2018-09-06T17:43:48.839Z,10.53
2018-09-06T17:46:52.164Z,11.23
2018-09-06T17:49:55.496Z,11.00
2018-09-06T17:52:58.720Z,11.07
2018-09-06T17:56:01.950Z,10.20
2018-09-06T17:59:05.396Z,10.70
2018-09-06T18:02:08.752Z,11.20
2018-09-06T18:05:11.986Z,10.90
2018-09-06T18:08:15.212Z,11.17
2018-09-06T18:11:19.470Z,11.90
2018-09-06T18:14:23.917Z,10.73
2018-09-06T18:17:27.343Z,11.33
2018-09-06T18:20:30.568Z,10.30
2018-09-06T18:23:34.096Z,12.20
2018-09-06T18:26:37.384Z,12.40
2018-09-06T18:29:40.643Z,11.67
2018-09-06T18:32:43.968Z,12.03
2018-09-06T18:35:48.476Z,12.63
2018-09-06T18:38:52.010Z,12.17
2018-09-06T18:41:55.135Z,12.60
2018-09-06T18:44:58.496Z,11.93
2018-09-06T18:48:01.784Z,13.00
2018-09-06T18:51:05.093Z,13.07
2018-09-06T18:54:08.371Z,15.50
2018-09-06T18:57:11.676Z,15.00
2018-09-06T19:00:15.105Z,12.00
2018-09-06T19:03:19.255Z,11.23
2018-09-06T19:06:22.558Z,10.50
2018-09-06T19:09:25.786Z,12.27
2018-09-06T19:12:29.407Z,13.00
2018-09-06T19:15:32.731Z,13.40
2018-09-06T19:18:35.990Z,13.37
2018-09-06T19:21:39.297Z,14.73
2018-09-06T19:24:42.653Z,15.90
2018-09-06T19:27:46.005Z,15.77
2018-09-06T19:30:51.312Z,15.73
2018-09-06T19:33:54.644Z,15.67
2018-09-06T19:36:59.772Z,16.00
2018-09-06T19:40:03.202Z,14.93
2018-09-06T19:43:06.592Z,17.27
2018-09-06T19:46:09.940Z,17.80
2018-09-06T19:49:13.301Z,18.30
2018-09-06T19:52:16.999Z,18.77
2018-09-06T19:55:20.152Z,19.27
2018-09-06T19:58:23.463Z,18.67
2018-09-06T20:01:26.667Z,17.27
2018-09-06T20:04:29.974Z,17.67
2018-09-06T20:07:33.151Z,17.17
2018-09-06T20:10:36.586Z,15.50
2018-09-06T20:13:39.975Z,17.60
2018-09-06T20:16:44.325Z,17.53
2018-09-06T20:19:47.597Z,17.23
2018-09-06T20:22:50.875Z,18.63
2018-09-06T20:25:54.284Z,19.00
2018-09-06T20:28:57.794Z,19.77
2018-09-06T20:32:01.115Z,19.63
2018-09-06T20:35:04.468Z,19.37
2018-09-06T20:38:07.687Z,19.27
2018-09-06T20:41:10.958Z,18.00
2018-09-06T20:44:15.042Z,17.93
2018-09-06T20:47:18.379Z,21.80
2018-09-06T20:50:21.709Z,21.07
2018-09-06T20:53:24.997Z,22.43
2018-09-06T20:56:28.275Z,21.50
2018-09-06T20:59:31.563Z,23.03
2018-09-06T21:02:39.803Z,20.60
2018-09-06T21:05:43.818Z,22.37
2018-09-06T21:08:47.092Z,21.90
2018-09-06T21:11:50.364Z,23.37
2018-09-06T21:14:53.745Z,22.70
2018-09-06T21:17:57.119Z,23.67
2018-09-06T21:21:01.394Z,22.30
2018-09-06T21:24:04.722Z,18.33
2018-09-06T21:27:07.986Z,20.67
2018-09-06T21:30:11.301Z,21.60
2018-09-06T21:33:15.300Z,22.40
2018-09-06T21:36:18.697Z,19.83
2018-09-06T21:39:21.912Z,19.93
2018-09-06T21:42:25.192Z,20.70
2018-09-06T21:45:28.491Z,22.37
2018-09-06T21:48:31.691Z,22.40
2018-09-06T21:51:35.001Z,21.23
2018-09-06T21:54:38.306Z,21.80
2018-09-06T21:57:41.592Z,22.43
2018-09-06T22:00:45.797Z,21.37
2018-09-06T22:03:54.373Z,20.53
2018-09-06T22:06:57.763Z,20.93
2018-09-06T22:10:01.015Z,19.93
2018-09-06T22:13:04.206Z,22.20
2018-09-06T22:16:07.509Z,21.70
2018-09-06T22:19:10.791Z,21.53
2018-09-06T22:22:15.247Z,22.03
2018-09-06T22:25:18.541Z,21.93
2018-09-06T22:28:21.816Z,21.87
2018-09-06T22:31:25.036Z,20.03
2018-09-06T22:34:28.763Z,20.20
2018-09-06T22:37:33.032Z,20.07
2018-09-06T22:40:36.244Z,19.70
2018-09-06T22:43:39.560Z,18.57
2018-09-06T22:46:42.872Z,18.40
2018-09-06T22:49:48.184Z,17.47
2018-09-06T22:52:51.399Z,17.37
2018-09-06T22:55:54.689Z,16.97
2018-09-06T22:58:57.984Z,15.97
2018-09-06T23:02:01.120Z,15.20
2018-09-06T23:05:04.454Z,15.50
2018-09-06T23:08:07.755Z,15.07
2018-09-06T23:11:10.945Z,15.93
2018-09-06T23:14:14.291Z,14.90
2018-09-06T23:17:17.424Z,14.90
2018-09-06T23:20:20.681Z,15.73
2018-09-06T23:23:23.932Z,14.80
2018-09-06T23:26:27.130Z,15.27
2018-09-06T23:29:30.398Z,14.70
2018-09-06T23:32:33.776Z,15.37
2018-09-06T23:35:37.022Z,14.50
2018-09-06T23:38:40.219Z,15.47
2018-09-06T23:41:43.554Z,15.33
2018-09-06T23:44:47.650Z,14.70
2018-09-06T23:47:50.927Z,15.63
2018-09-06T23:50:54.988Z,15.70
2018-09-06T23:53:58.241Z,16.17
2018-09-06T23:57:01.570Z,14.57
